Time;durP1;ratioP1;P1;durP2;ratioP2;P2;SDS_P1;SDS_P2;PMS_P1;PMS_P2;Temp;Humidity;BMP_temperature;BMP_pressure;BME280_temperature;BME280_humidity;BME280_pressure;Samples;Min_cycle;Max_cycle;Signal;HPM_P1;HPM_P2
2021/03/08 00:01:08;;;;;;;;;;;25.10;99.90;;;;;;5054447;28;19920;-84
2021/03/08 00:03:35;;;;;;;;;;;25.20;99.90;;;;;;5053231;28;19909;-83
2021/03/08 00:06:02;;;;;;;;;;;25.40;99.90;;;;;;5053679;28;20432;-83
2021/03/08 00:08:28;;;;;;;;;;;25.50;99.90;;;;;;5053708;28;19945;-84
2021/03/08 00:10:55;;;;;;;;;;;25.40;99.90;;;;;;5053154;28;19908;-84
2021/03/08 00:13:22;;;;;;;;;;;25.50;99.90;;;;;;5053241;28;20019;-83
2021/03/08 00:15:48;;;;;;;;;;;25.50;99.90;;;;;;5036512;28;20347;-84
2021/03/08 00:18:15;;;;;;;;;;;25.50;99.90;;;;;;5053812;28;19909;-79
2021/03/08 00:20:42;;;;;;;;;;;25.50;99.90;;;;;;5054010;28;19967;-79
2021/03/08 00:23:08;;;;;;;;;;;25.50;99.90;;;;;;5056075;28;19966;-79
2021/03/08 00:25:36;;;;;;;;;;;25.70;99.90;;;;;;5057415;28;19920;-81
2021/03/08 00:28:03;;;;;;;;;;;25.70;99.90;;;;;;5053616;28;19975;-79
2021/03/08 00:30:30;;;;;;;;;;;25.90;99.90;;;;;;5052931;28;19916;-79
2021/03/08 00:32:56;;;;;;;;;;;26.00;99.90;;;;;;5052763;28;19963;-79
2021/03/08 00:35:23;;;;;;;;;;;26.10;99.90;;;;;;5053174;28;19909;-80
2021/03/08 00:37:50;;;;;;;;;;;26.30;99.90;;;;;;5052578;28;19920;-79
2021/03/08 00:40:18;;;;;;;;;;;26.40;99.60;;;;;;5052716;28;19909;-79
2021/03/08 00:42:45;;;;;;;;;;;26.60;99.40;;;;;;5052354;28;19908;-80
2021/03/08 00:45:16;;;;;;;;;;;26.50;99.20;;;;;;5052165;28;20011;-80
2021/03/08 00:47:43;;;;;;;;;;;26.50;99.60;;;;;;5051909;28;19917;-79
2021/03/08 00:50:14;;;;;;;;;;;26.80;99.00;;;;;;5052666;28;19913;-84
2021/03/08 00:52:42;;;;;;;;;;;26.90;98.90;;;;;;5052343;28;19916;-87
2021/03/08 00:55:10;;;;;;;;;;;27.00;98.30;;;;;;5034358;28;20000;-86
2021/03/08 00:57:37;;;;;;;;;;;27.20;97.70;;;;;;5034912;28;19932;-84
2021/03/08 01:00:05;;;;;;;;;;;27.20;97.30;;;;;;5052748;28;19955;-85
2021/03/08 01:02:31;;;;;;;;;;;27.30;97.40;;;;;;5052667;28;19909;-83
2021/03/08 01:04:58;;;;;;;;;;;27.40;97.30;;;;;;5052583;28;19912;-84
2021/03/08 01:07:25;;;;;;;;;;;27.40;97.10;;;;;;5034781;28;20303;-84
2021/03/08 01:09:51;;;;;;;;;;;27.50;96.70;;;;;;5054679;28;19909;-83
2021/03/08 01:12:18;;;;;;;;;;;27.60;96.50;;;;;;5059437;28;19917;-83
2021/03/08 01:14:46;;;;;;;;;;;27.80;96.20;;;;;;5058565;28;19909;-84
2021/03/08 01:17:12;;;;;;;;;;;28.10;95.50;;;;;;5057480;28;19936;-83
2021/03/08 01:19:39;;;;;;;;;;;28.50;95.00;;;;;;5057617;28;19979;-84
2021/03/08 01:22:06;;;;;;;;;;;28.80;94.50;;;;;;5057010;28;19909;-84
2021/03/08 01:24:32;;;;;;;;;;;29.20;94.00;;;;;;5053773;28;19923;-85
2021/03/08 01:26:59;;;;;;;;;;;29.20;93.90;;;;;;5033806;28;20270;-84
2021/03/08 01:29:26;;;;;;;;;;;29.40;93.50;;;;;;5052960;28;20301;-83
2021/03/08 01:31:52;;;;;;;;;;;29.70;93.00;;;;;;5053220;28;19909;-83
2021/03/08 01:34:19;;;;;;;;;;;30.10;92.40;;;;;;5051848;28;20350;-84
2021/03/08 01:36:46;;;;;;;;;;;30.40;91.90;;;;;;5052244;28;20263;-84
2021/03/08 01:39:13;;;;;;;;;;;30.50;91.40;;;;;;5051548;28;20283;-84
2021/03/08 01:41:39;;;;;;;;;;;30.50;91.50;;;;;;5052068;28;19953;-83
2021/03/08 01:44:06;;;;;;;;;;;30.60;91.00;;;;;;5051681;28;19908;-82
2021/03/08 01:46:36;;;;;;;;;;;30.30;91.30;;;;;;5052153;28;19915;-83
2021/03/08 01:49:03;;;;;;;;;;;30.00;91.40;;;;;;5052169;28;19916;-83
2021/03/08 01:51:30;;;;;;;;;;;30.30;91.40;;;;;;5052120;28;19909;-84
2021/03/08 01:53:57;;;;;;;;;;;30.20;91.30;;;;;;5053500;28;19913;-83
2021/03/08 01:56:24;;;;;;;;;;;29.90;91.30;;;;;;5053218;28;19913;-83
2021/03/08 01:58:51;;;;;;;;;;;29.70;91.80;;;;;;5052068;28;19910;-83
2021/03/08 02:01:17;;;;;;;;;;;29.40;91.70;;;;;;5052235;28;19999;-82
2021/03/08 02:03:44;;;;;;;;;;;29.10;92.20;;;;;;5051912;28;19915;-83
2021/03/08 02:06:11;;;;;;;;;;;29.00;92.90;;;;;;5052126;28;20224;-83
2021/03/08 02:08:38;;;;;;;;;;;29.00;92.40;;;;;;5056171;28;19965;-81
2021/03/08 02:11:05;;;;;;;;;;;28.90;92.30;;;;;;5068294;28;20359;-83
2021/03/08 02:13:54;;;;;;;;;;;28.80;92.30;;;;;;5048537;28;20434;-84
2021/03/08 02:16:39;;;;;;;;;;;28.70;92.80;;;;;;5023583;28;20050;-82
2021/03/08 02:19:17;;;;;;;;;;;28.70;92.80;;;;;;5051970;28;19909;-82
2021/03/08 02:21:56;;;;;;;;;;;28.90;92.40;;;;;;5051596;28;20278;-83
2021/03/08 02:24:23;;;;;;;;;;;28.90;92.20;;;;;;5051865;28;20003;-81
2021/03/08 02:26:55;;;;;;;;;;;28.90;92.00;;;;;;5052167;28;19924;-82
2021/03/08 02:29:46;;;;;;;;;;;28.90;92.50;;;;;;5052666;28;19909;-83
2021/03/08 02:32:14;;;;;;;;;;;29.00;91.90;;;;;;5051931;28;19909;-84
2021/03/08 02:34:56;;;;;;;;;;;29.10;92.20;;;;;;5051240;28;19909;-84
2021/03/08 02:37:26;;;;;;;;;;;29.30;91.80;;;;;;5035118;28;19909;-83
2021/03/08 02:39:54;;;;;;;;;;;29.30;90.90;;;;;;5054780;28;19909;-83
2021/03/08 02:42:26;;;;;;;;;;;29.20;90.70;;;;;;5036936;28;19913;-82
2021/03/08 02:44:56;;;;;;;;;;;29.20;90.30;;;;;;5037190;28;20352;-82
2021/03/08 02:47:25;;;;;;;;;;;29.30;90.40;;;;;;5054763;28;19920;-81
2021/03/08 02:49:54;;;;;;;;;;;29.30;90.40;;;;;;5019443;28;20377;-85
2021/03/08 02:52:21;;;;;;;;;;;29.20;90.30;;;;;;5036535;28;20312;-82
2021/03/08 02:54:53;;;;;;;;;;;29.20;90.40;;;;;;5054396;28;19965;-83
2021/03/08 02:57:23;;;;;;;;;;;29.10;90.50;;;;;;5036501;28;19909;-82
2021/03/08 02:59:50;;;;;;;;;;;29.00;90.70;;;;;;5034328;28;20008;-83
2021/03/08 03:02:19;;;;;;;;;;;28.90;90.70;;;;;;5054259;28;20418;-83
2021/03/08 03:04:49;;;;;;;;;;;28.80;90.60;;;;;;5053544;28;20011;-81
2021/03/08 03:07:17;;;;;;;;;;;28.80;90.80;;;;;;5054387;28;19916;-80
2021/03/08 03:09:45;;;;;;;;;;;28.80;90.70;;;;;;5053653;28;19916;-79
2021/03/08 03:12:14;;;;;;;;;;;28.80;90.40;;;;;;5035844;28;20343;-81
2021/03/08 03:14:42;;;;;;;;;;;28.70;90.00;;;;;;5036410;28;19990;-80
2021/03/08 03:17:11;;;;;;;;;;;28.50;91.20;;;;;;5054189;28;19912;-81
2021/03/08 03:19:39;;;;;;;;;;;28.70;90.80;;;;;;5054512;28;19992;-81
2021/03/08 03:22:07;;;;;;;;;;;28.70;90.50;;;;;;5053974;28;19909;-81
2021/03/08 03:24:34;;;;;;;;;;;28.70;88.20;;;;;;5035942;28;20359;-81
2021/03/08 03:27:03;;;;;;;;;;;28.40;90.40;;;;;;5053815;28;19917;-81
2021/03/08 03:29:33;;;;;;;;;;;28.40;90.60;;;;;;5035840;28;20024;-82
2021/03/08 03:32:01;;;;;;;;;;;28.20;90.70;;;;;;5053970;28;19916;-79
2021/03/08 03:34:29;;;;;;;;;;;28.20;90.40;;;;;;5053968;28;19995;-79
2021/03/08 03:36:55;;;;;;;;;;;28.00;90.80;;;;;;5036209;28;19909;-79
2021/03/08 03:39:23;;;;;;;;;;;27.90;91.40;;;;;;5054268;28;19955;-79
2021/03/08 03:41:50;;;;;;;;;;;27.80;91.50;;;;;;5035862;28;19909;-81
2021/03/08 03:44:16;;;;;;;;;;;27.80;91.60;;;;;;5036020;28;19995;-81
2021/03/08 03:46:44;;;;;;;;;;;27.70;91.70;;;;;;5053874;28;19909;-79
2021/03/08 03:49:11;;;;;;;;;;;27.60;92.00;;;;;;5053471;28;20344;-80
2021/03/08 03:51:39;;;;;;;;;;;27.60;92.30;;;;;;5036137;28;19999;-80
2021/03/08 03:54:06;;;;;;;;;;;27.60;92.20;;;;;;5054303;28;19909;-81
2021/03/08 03:56:33;;;;;;;;;;;27.60;92.30;;;;;;5055191;28;20371;-79
2021/03/08 03:59:05;;;;;;;;;;;27.60;92.40;;;;;;5039085;28;20278;-80
2021/03/08 04:01:38;;;;;;;;;;;27.60;92.60;;;;;;5054220;28;20003;-80
2021/03/08 04:04:22;;;;;;;;;;;27.60;92.60;;;;;;5053600;28;19908;-82
2021/03/08 04:06:49;;;;;;;;;;;27.50;92.80;;;;;;5047234;28;20390;-81
2021/03/08 04:09:20;;;;;;;;;;;27.50;92.80;;;;;;5049947;28;19913;-80
2021/03/08 04:11:50;;;;;;;;;;;27.50;93.00;;;;;;5033762;28;19913;-83
2021/03/08 04:14:18;;;;;;;;;;;27.50;93.40;;;;;;5036152;28;20042;-80
2021/03/08 04:16:48;;;;;;;;;;;27.60;93.50;;;;;;5036328;28;20016;-83
2021/03/08 04:19:16;;;;;;;;;;;27.60;93.20;;;;;;5050807;28;20359;-83
2021/03/08 04:21:43;;;;;;;;;;;27.60;93.20;;;;;;5034452;28;19915;-80
2021/03/08 04:24:11;;;;;;;;;;;27.60;93.20;;;;;;5032930;28;19923;-81
2021/03/08 04:26:38;;;;;;;;;;;27.60;93.30;;;;;;5048693;28;19925;-82
2021/03/08 04:29:06;;;;;;;;;;;27.70;93.00;;;;;;5032863;28;19913;-82
2021/03/08 04:31:38;;;;;;;;;;;27.80;92.70;;;;;;5033228;28;20394;-81
2021/03/08 04:34:05;;;;;;;;;;;27.90;93.00;;;;;;5032338;28;20032;-83
2021/03/08 04:36:33;;;;;;;;;;;28.00;92.80;;;;;;5035043;28;19975;-80
2021/03/08 04:39:03;;;;;;;;;;;28.00;92.80;;;;;;5052494;28;20003;-80
2021/03/08 04:41:32;;;;;;;;;;;28.00;93.30;;;;;;5051792;28;19917;-79
2021/03/08 04:43:59;;;;;;;;;;;28.10;93.30;;;;;;5034243;28;19909;-80
2021/03/08 04:46:27;;;;;;;;;;;28.10;93.60;;;;;;5052521;28;19909;-79
2021/03/08 04:48:54;;;;;;;;;;;28.10;93.80;;;;;;5052671;28;19970;-80
2021/03/08 04:51:22;;;;;;;;;;;28.10;93.60;;;;;;5052587;28;19913;-80
2021/03/08 04:53:50;;;;;;;;;;;28.10;94.20;;;;;;5034605;28;19912;-80
2021/03/08 04:56:17;;;;;;;;;;;28.00;94.40;;;;;;5052183;28;20291;-81
2021/03/08 04:58:44;;;;;;;;;;;27.80;95.00;;;;;;5052458;28;19992;-81
2021/03/08 05:01:11;;;;;;;;;;;27.70;95.50;;;;;;5050607;28;19920;-80
2021/03/08 05:03:38;;;;;;;;;;;27.60;96.10;;;;;;5033133;28;19913;-81
2021/03/08 05:06:06;;;;;;;;;;;27.50;96.70;;;;;;5043259;28;19909;-81
2021/03/08 05:08:34;;;;;;;;;;;27.40;96.80;;;;;;5064608;28;19921;-79
2021/03/08 05:11:01;;;;;;;;;;;27.30;97.20;;;;;;5053340;28;19915;-82
2021/03/08 05:13:31;;;;;;;;;;;27.20;97.60;;;;;;5061315;28;19909;-82
2021/03/08 05:16:01;;;;;;;;;;;27.20;97.80;;;;;;5057530;28;19917;-81
2021/03/08 05:18:28;;;;;;;;;;;27.10;97.90;;;;;;5052660;28;19920;-80
2021/03/08 05:20:56;;;;;;;;;;;27.10;98.20;;;;;;5053026;28;20058;-80
2021/03/08 05:23:23;;;;;;;;;;;27.10;98.30;;;;;;5052771;28;19909;-80
2021/03/08 05:25:50;;;;;;;;;;;27.00;98.50;;;;;;5052672;28;19928;-81
2021/03/08 05:28:17;;;;;;;;;;;26.90;98.80;;;;;;5052949;28;19917;-81
2021/03/08 05:30:44;;;;;;;;;;;27.00;98.90;;;;;;5053145;28;19999;-83
2021/03/08 05:33:30;;;;;;;;;;;27.00;98.90;;;;;;5050696;28;19916;-81
2021/03/08 05:35:58;;;;;;;;;;;26.90;99.00;;;;;;5050623;28;19909;-81
2021/03/08 05:38:27;;;;;;;;;;;26.80;99.30;;;;;;5052737;28;20071;-80
2021/03/08 05:41:13;;;;;;;;;;;26.70;99.50;;;;;;5053673;28;19908;-81
2021/03/08 05:43:40;;;;;;;;;;;26.60;99.80;;;;;;5054631;28;20386;-82
2021/03/08 05:46:16;;;;;;;;;;;26.60;99.90;;;;;;5035306;28;19909;-81
2021/03/08 05:49:08;;;;;;;;;;;26.60;99.90;;;;;;5051432;28;19921;-82
2021/03/08 05:51:44;;;;;;;;;;;26.50;99.90;;;;;;5049563;28;19908;-83
2021/03/08 05:54:13;;;;;;;;;;;26.50;99.90;;;;;;5034156;28;19909;-80
2021/03/08 05:56:46;;;;;;;;;;;26.50;99.90;;;;;;5052419;28;19913;-84
2021/03/08 05:59:31;;;;;;;;;;;26.40;99.90;;;;;;5052146;28;20385;-82
2021/03/08 06:02:16;;;;;;;;;;;26.30;98.80;;;;;;5052528;28;19919;-85
2021/03/08 06:05:14;;;;;;;;;;;26.30;98.80;;;;;;5051641;28;19944;-84
2021/03/08 06:07:47;;;;;;;;;;;26.30;98.60;;;;;;5019117;28;19962;-83
2021/03/08 06:10:21;;;;;;;;;;;26.20;98.90;;;;;;5035015;28;19908;-83
2021/03/08 06:12:49;;;;;;;;;;;26.20;99.20;;;;;;5054296;28;20074;-81
2021/03/08 06:15:17;;;;;;;;;;;26.10;99.80;;;;;;5056242;28;19909;-78
2021/03/08 06:17:44;;;;;;;;;;;25.80;99.90;;;;;;5037907;28;19916;-81
2021/03/08 06:20:11;;;;;;;;;;;25.50;99.90;;;;;;5055836;28;19908;-79
2021/03/08 06:22:39;;;;;;;;;;;25.10;99.90;;;;;;5056638;28;19928;-80
2021/03/08 06:25:12;;;;;;;;;;;24.80;99.90;;;;;;5056146;28;19924;-80
2021/03/08 06:27:42;;;;;;;;;;;24.30;99.90;;;;;;5055261;28;19921;-83
2021/03/08 06:30:11;;;;;;;;;;;24.10;99.90;;;;;;5055806;28;19912;-82
2021/03/08 06:32:38;;;;;;;;;;;24.00;99.90;;;;;;5037892;28;19958;-81
2021/03/08 06:35:05;;;;;;;;;;;23.70;99.90;;;;;;5054932;28;19936;-83
2021/03/08 06:37:34;;;;;;;;;;;23.40;99.90;;;;;;5055975;28;19971;-82
2021/03/08 06:40:03;;;;;;;;;;;23.20;99.90;;;;;;5054426;28;19920;-82
2021/03/08 06:42:31;;;;;;;;;;;23.00;99.90;;;;;;5037714;28;19909;-81
2021/03/08 06:44:57;;;;;;;;;;;22.90;99.90;;;;;;5053658;28;20406;-83
2021/03/08 06:47:24;;;;;;;;;;;22.90;99.90;;;;;;5035720;28;20288;-81
2021/03/08 06:49:53;;;;;;;;;;;22.90;99.90;;;;;;5053599;28;19909;-81
2021/03/08 06:52:24;;;;;;;;;;;23.00;99.90;;;;;;5053748;28;19908;-81
2021/03/08 06:55:01;;;;;;;;;;;23.10;99.90;;;;;;5053122;28;19944;-81
2021/03/08 06:57:30;;;;;;;;;;;23.10;99.90;;;;;;5053705;28;19927;-81
2021/03/08 07:00:00;;;;;;;;;;;23.40;99.90;;;;;;5037102;28;19916;-81
2021/03/08 07:02:45;;;;;;;;;;;23.50;99.90;;;;;;5055907;28;20003;-81
2021/03/08 07:05:23;;;;;;;;;;;23.60;99.90;;;;;;5055002;28;20406;-81
2021/03/08 07:08:06;;;;;;;;;;;23.80;99.90;;;;;;5037659;28;19917;-80
2021/03/08 07:10:43;;;;;;;;;;;23.90;99.90;;;;;;5056013;28;19952;-82
2021/03/08 07:13:10;;;;;;;;;;;24.00;99.90;;;;;;5055440;28;19992;-80
2021/03/08 07:16:03;;;;;;;;;;;24.10;99.90;;;;;;5055200;28;19916;-80
2021/03/08 07:18:30;;;;;;;;;;;24.20;99.90;;;;;;5034808;28;20264;-82
2021/03/08 07:21:15;;;;;;;;;;;24.30;99.90;;;;;;5036886;28;19913;-82
2021/03/08 07:23:44;;;;;;;;;;;24.40;99.90;;;;;;5053746;28;20287;-82
2021/03/08 07:26:20;;;;;;;;;;;24.50;99.90;;;;;;5056193;28;19921;-82
2021/03/08 07:29:05;;;;;;;;;;;24.50;99.90;;;;;;5042697;28;20018;-83
2021/03/08 07:31:36;;;;;;;;;;;24.50;99.90;;;;;;5057555;28;19957;-83
2021/03/08 07:34:09;;;;;;;;;;;24.60;99.90;;;;;;5054137;28;19909;-83
2021/03/08 07:36:46;;;;;;;;;;;24.60;99.90;;;;;;5054193;28;20332;-81
2021/03/08 07:39:13;;;;;;;;;;;24.60;99.90;;;;;;5054377;28;19948;-80
2021/03/08 07:41:58;;;;;;;;;;;24.50;99.90;;;;;;5054742;28;20034;-81
2021/03/08 07:44:26;;;;;;;;;;;24.50;99.90;;;;;;5054373;28;20333;-81
2021/03/08 07:46:53;;;;;;;;;;;24.50;99.90;;;;;;5036993;28;19951;-81
2021/03/08 07:49:39;;;;;;;;;;;24.50;99.90;;;;;;5055007;28;19913;-82
2021/03/08 07:52:17;;;;;;;;;;;24.50;99.90;;;;;;5069463;28;20012;-81
2021/03/08 07:54:53;;;;;;;;;;;24.50;99.90;;;;;;5056172;28;19967;-81
2021/03/08 07:57:26;;;;;;;;;;;24.50;99.90;;;;;;5053658;28;20334;-81
2021/03/08 07:59:53;;;;;;;;;;;24.50;99.90;;;;;;5053517;28;20279;-80
2021/03/08 08:02:27;;;;;;;;;;;24.50;99.90;;;;;;5053629;28;19978;-82
2021/03/08 08:04:55;;;;;;;;;;;24.60;99.90;;;;;;5035420;28;20321;-82
2021/03/08 08:07:22;;;;;;;;;;;24.60;99.90;;;;;;5069625;28;20027;-81
2021/03/08 08:09:49;;;;;;;;;;;24.60;99.90;;;;;;5053617;28;19909;-84
2021/03/08 08:12:22;;;;;;;;;;;24.60;99.90;;;;;;5053883;28;19916;-81
2021/03/08 08:14:51;;;;;;;;;;;24.60;99.90;;;;;;5058806;28;19913;-83
2021/03/08 08:17:23;;;;;;;;;;;24.60;99.90;;;;;;5035860;28;20383;-81
2021/03/08 08:19:51;;;;;;;;;;;24.60;99.90;;;;;;5054125;28;19915;-80
2021/03/08 08:22:21;;;;;;;;;;;24.60;99.90;;;;;;5035897;28;20325;-82
2021/03/08 08:24:49;;;;;;;;;;;24.50;99.90;;;;;;5034850;28;19992;-82
2021/03/08 08:27:19;;;;;;;;;;;24.50;99.90;;;;;;5052904;28;19924;-82
2021/03/08 08:29:49;;;;;;;;;;;24.50;99.90;;;;;;5053632;28;20343;-83
2021/03/08 08:32:20;;;;;;;;;;;24.50;99.90;;;;;;5019510;28;19952;-82
2021/03/08 08:34:51;;;;;;;;;;;24.40;99.90;;;;;;5034437;28;19909;-81
2021/03/08 08:37:20;;;;;;;;;;;24.40;99.90;;;;;;5053251;28;19908;-82
2021/03/08 08:39:53;;;;;;;;;;;24.30;99.90;;;;;;5053489;28;20067;-82
2021/03/08 08:42:24;;;;;;;;;;;24.30;99.90;;;;;;5053269;28;20285;-81
2021/03/08 08:44:54;;;;;;;;;;;24.20;99.90;;;;;;5052625;28;19964;-81
2021/03/08 08:47:21;;;;;;;;;;;24.20;99.90;;;;;;5053076;28;19963;-82
2021/03/08 08:49:50;;;;;;;;;;;24.20;99.90;;;;;;5052641;28;19916;-82
2021/03/08 08:52:37;;;;;;;;;;;24.10;99.90;;;;;;5034169;28;19996;-81
2021/03/08 08:55:04;;;;;;;;;;;24.10;99.90;;;;;;5051619;28;20385;-82
2021/03/08 08:57:35;;;;;;;;;;;24.10;99.90;;;;;;5052276;28;19956;-82
2021/03/08 09:00:16;;;;;;;;;;;23.90;99.90;;;;;;5051645;28;19917;-82
2021/03/08 09:02:44;;;;;;;;;;;23.90;99.90;;;;;;5051776;28;19921;-82
2021/03/08 09:05:29;;;;;;;;;;;23.90;99.90;;;;;;5053522;28;19948;-83
2021/03/08 09:08:16;;;;;;;;;;;23.90;99.90;;;;;;5053802;28;19940;-82
2021/03/08 09:10:43;;;;;;;;;;;23.80;99.90;;;;;;5028931;28;19916;-82
2021/03/08 09:13:10;;;;;;;;;;;23.80;99.90;;;;;;5052141;28;19935;-82
2021/03/08 09:15:37;;;;;;;;;;;23.80;99.90;;;;;;5062343;28;19991;-83
2021/03/08 09:18:06;;;;;;;;;;;23.70;99.90;;;;;;5057380;28;19916;-87
2021/03/08 09:20:34;;;;;;;;;;;23.70;99.90;;;;;;5039730;28;19995;-83
2021/03/08 09:23:03;;;;;;;;;;;23.70;99.90;;;;;;5048814;28;20333;-83
2021/03/08 09:25:34;;;;;;;;;;;23.60;99.90;;;;;;5042052;28;19925;-85
2021/03/08 09:28:12;;;;;;;;;;;23.60;99.90;;;;;;5031823;28;19922;-80
2021/03/08 09:30:42;;;;;;;;;;;23.60;99.90;;;;;;5031933;28;19913;-84
2021/03/08 09:33:11;;;;;;;;;;;23.50;99.90;;;;;;5031927;28;20363;-82
2021/03/08 09:35:45;;;;;;;;;;;23.60;99.90;;;;;;5032167;28;20468;-84
2021/03/08 09:38:21;;;;;;;;;;;23.50;99.90;;;;;;5031767;28;19913;-81
2021/03/08 09:40:50;;;;;;;;;;;23.50;99.90;;;;;;5029692;28;19924;-81
2021/03/08 09:43:27;;;;;;;;;;;23.40;99.90;;;;;;5032366;28;19916;-81
2021/03/08 09:45:55;;;;;;;;;;;23.40;99.90;;;;;;5030501;28;19924;-81
2021/03/08 09:48:23;;;;;;;;;;;23.40;99.90;;;;;;5034784;28;19921;-80
2021/03/08 09:50:50;;;;;;;;;;;23.40;99.90;;;;;;5035167;28;20379;-81
2021/03/08 09:53:31;;;;;;;;;;;23.30;99.90;;;;;;5036924;28;19916;-82
2021/03/08 09:56:03;;;;;;;;;;;23.40;99.90;;;;;;5034526;28;19951;-81
2021/03/08 09:58:32;;;;;;;;;;;23.30;99.90;;;;;;5033000;28;20065;-84
2021/03/08 10:01:10;;;;;;;;;;;23.30;99.90;;;;;;5035682;28;19913;-82
2021/03/08 10:03:41;;;;;;;;;;;23.30;99.90;;;;;;5038990;28;19913;-83
2021/03/08 10:06:27;;;;;;;;;;;23.30;99.90;;;;;;5038058;28;19913;-87
2021/03/08 10:08:54;;;;;;;;;;;23.30;99.90;;;;;;5037265;28;20367;-85
2021/03/08 10:11:23;;;;;;;;;;;23.30;99.90;;;;;;5036006;28;19913;-83
2021/03/08 10:13:50;;;;;;;;;;;23.20;99.90;;;;;;5034425;28;19975;-83
2021/03/08 10:16:20;;;;;;;;;;;23.20;99.90;;;;;;5034516;28;19909;-83
2021/03/08 10:18:48;;;;;;;;;;;23.20;99.90;;;;;;5036312;28;19909;-83
2021/03/08 10:21:15;;;;;;;;;;;23.20;99.90;;;;;;5035008;28;19952;-83
2021/03/08 10:23:42;;;;;;;;;;;23.10;99.90;;;;;;5031103;28;19916;-83
2021/03/08 10:26:14;;;;;;;;;;;23.10;99.90;;;;;;5048586;28;19932;-83
2021/03/08 10:28:50;;;;;;;;;;;23.10;99.90;;;;;;5038329;28;19923;-83
2021/03/08 10:31:23;;;;;;;;;;;23.00;99.90;;;;;;5038626;28;19909;-82
2021/03/08 10:33:56;;;;;;;;;;;23.00;99.90;;;;;;5056196;28;20032;-82
2021/03/08 10:36:26;;;;;;;;;;;23.00;99.90;;;;;;5037839;28;19909;-82
2021/03/08 10:38:55;;;;;;;;;;;23.00;99.90;;;;;;5056115;28;20363;-82
2021/03/08 10:41:25;;;;;;;;;;;23.00;99.90;;;;;;5056802;28;19909;-81
2021/03/08 10:43:55;;;;;;;;;;;23.00;99.90;;;;;;5071318;28;20481;-83
2021/03/08 10:46:28;;;;;;;;;;;23.00;99.90;;;;;;5056901;28;19991;-83
2021/03/08 10:49:03;;;;;;;;;;;23.00;99.90;;;;;;5042806;28;19960;-83
2021/03/08 10:51:32;;;;;;;;;;;23.00;99.90;;;;;;5057152;28;19999;-81
2021/03/08 10:54:00;;;;;;;;;;;23.00;99.90;;;;;;5061086;28;19912;-85
2021/03/08 10:56:27;;;;;;;;;;;23.00;99.90;;;;;;5069648;28;19921;-82
2021/03/08 10:58:58;;;;;;;;;;;23.00;99.90;;;;;;5066280;28;19916;-85
2021/03/08 11:01:26;;;;;;;;;;;23.00;99.90;;;;;;5053969;28;19920;-81
2021/03/08 11:03:54;;;;;;;;;;;23.00;99.90;;;;;;5053614;28;19913;-85
2021/03/08 11:06:21;;;;;;;;;;;23.00;99.90;;;;;;5035326;28;19960;-83
2021/03/08 11:08:58;;;;;;;;;;;23.10;99.90;;;;;;5053113;28;19925;-83
2021/03/08 11:11:29;;;;;;;;;;;23.10;99.90;;;;;;5053321;28;20290;-84
2021/03/08 11:14:14;;;;;;;;;;;23.10;99.90;;;;;;5052940;28;19913;-83
2021/03/08 11:16:48;;;;;;;;;;;23.10;99.90;;;;;;5053288;28;20295;-82
2021/03/08 11:19:19;;;;;;;;;;;23.10;99.90;;;;;;5053420;28;20409;-86
2021/03/08 11:21:47;;;;;;;;;;;23.20;99.90;;;;;;5034179;28;19917;-85
2021/03/08 11:24:15;;;;;;;;;;;23.10;99.90;;;;;;5035048;28;20318;-82
2021/03/08 11:26:42;;;;;;;;;;;23.00;99.90;;;;;;5052910;28;20366;-83
2021/03/08 11:29:22;;;;;;;;;;;23.00;99.90;;;;;;5052954;28;19924;-85
2021/03/08 11:31:53;;;;;;;;;;;23.00;99.90;;;;;;5052721;28;20019;-85
2021/03/08 11:34:35;;;;;;;;;;;23.00;99.90;;;;;;5053055;28;19941;-83
2021/03/08 11:37:09;;;;;;;;;;;22.90;99.90;;;;;;5052419;28;20287;-83
2021/03/08 11:39:46;;;;;;;;;;;22.90;99.90;;;;;;5052818;28;20016;-82
2021/03/08 11:42:14;;;;;;;;;;;22.90;99.90;;;;;;5052555;28;19920;-84
2021/03/08 11:44:41;;;;;;;;;;;22.90;99.90;;;;;;5052422;28;19913;-84
2021/03/08 11:47:08;;;;;;;;;;;23.00;99.90;;;;;;5052082;28;19928;-83
2021/03/08 11:49:35;;;;;;;;;;;22.90;99.90;;;;;;5053044;28;20012;-84
2021/03/08 11:52:02;;;;;;;;;;;23.00;99.90;;;;;;5052371;28;19920;-83
2021/03/08 11:54:29;;;;;;;;;;;22.90;99.90;;;;;;5051953;28;19913;-82
2021/03/08 11:56:56;;;;;;;;;;;22.90;99.90;;;;;;5051591;28;20061;-84
2021/03/08 11:59:22;;;;;;;;;;;23.00;99.90;;;;;;5050353;28;20295;-82
2021/03/08 12:01:49;;;;;;;;;;;23.00;99.90;;;;;;5051849;28;20008;-84
2021/03/08 12:04:18;;;;;;;;;;;22.90;99.90;;;;;;5052654;28;20003;-83
2021/03/08 12:06:45;;;;;;;;;;;23.00;99.90;;;;;;5051578;28;20469;-83
2021/03/08 12:09:11;;;;;;;;;;;22.90;99.90;;;;;;5050858;28;20471;-84
2021/03/08 12:11:38;;;;;;;;;;;23.00;99.90;;;;;;5052155;28;20397;-82
2021/03/08 12:14:05;;;;;;;;;;;22.90;99.90;;;;;;5052078;28;19913;-82
2021/03/08 12:16:32;;;;;;;;;;;22.90;99.90;;;;;;5052614;28;19913;-82
2021/03/08 12:18:58;;;;;;;;;;;22.90;99.90;;;;;;5052360;28;20649;-83
2021/03/08 12:21:25;;;;;;;;;;;22.80;99.90;;;;;;5052183;28;19913;-83
2021/03/08 12:23:52;;;;;;;;;;;22.90;99.90;;;;;;5052355;28;19913;-82
2021/03/08 12:26:19;;;;;;;;;;;22.80;99.90;;;;;;5052616;28;19928;-82
2021/03/08 12:28:46;;;;;;;;;;;22.80;99.90;;;;;;5051833;28;19964;-82
2021/03/08 12:31:14;;;;;;;;;;;22.80;99.90;;;;;;5052417;28;20011;-84
2021/03/08 12:33:41;;;;;;;;;;;22.80;99.90;;;;;;5052769;28;20000;-83
2021/03/08 12:36:08;;;;;;;;;;;22.80;99.90;;;;;;5052653;28;19916;-83
2021/03/08 12:38:35;;;;;;;;;;;22.80;99.90;;;;;;5064358;28;19920;-83
2021/03/08 12:41:02;;;;;;;;;;;22.80;99.90;;;;;;5069660;28;19931;-81
2021/03/08 12:43:29;;;;;;;;;;;22.80;99.90;;;;;;5056326;28;19958;-82
2021/03/08 12:45:56;;;;;;;;;;;22.80;99.90;;;;;;5053530;28;19971;-83
2021/03/08 12:48:23;;;;;;;;;;;22.70;99.90;;;;;;5053204;28;20327;-83
2021/03/08 12:50:50;;;;;;;;;;;22.70;99.90;;;;;;5051798;28;19913;-83
2021/03/08 12:53:16;;;;;;;;;;;22.80;99.90;;;;;;5051439;28;19912;-84
2021/03/08 12:55:43;;;;;;;;;;;22.80;99.90;;;;;;5051112;28;19913;-86
2021/03/08 12:58:10;;;;;;;;;;;22.80;99.90;;;;;;5051100;28;19966;-83
2021/03/08 13:00:36;;;;;;;;;;;22.80;99.90;;;;;;5051114;28;19916;-84
2021/03/08 13:03:04;;;;;;;;;;;22.80;99.90;;;;;;5033775;28;19913;-83
2021/03/08 13:05:30;;;;;;;;;;;22.80;99.90;;;;;;5051350;28;19971;-83
2021/03/08 13:07:57;;;;;;;;;;;22.70;99.90;;;;;;5051055;28;19928;-83
2021/03/08 13:10:24;;;;;;;;;;;22.70;99.90;;;;;;5050684;28;20466;-85
2021/03/08 13:12:51;;;;;;;;;;;22.70;99.90;;;;;;5050621;28;19917;-83
2021/03/08 13:15:18;;;;;;;;;;;22.60;99.90;;;;;;5050824;28;19916;-84
2021/03/08 13:17:45;;;;;;;;;;;22.60;99.90;;;;;;5051105;28;19952;-84
2021/03/08 13:20:13;;;;;;;;;;;22.50;99.90;;;;;;5050772;28;19912;-84
2021/03/08 13:22:40;;;;;;;;;;;22.50;99.90;;;;;;5050272;28;19912;-85
2021/03/08 13:25:08;;;;;;;;;;;22.50;99.90;;;;;;5050895;28;19966;-84
2021/03/08 13:27:35;;;;;;;;;;;22.40;99.90;;;;;;5050585;28;20018;-85
2021/03/08 13:30:03;;;;;;;;;;;22.40;99.90;;;;;;5050502;28;19913;-84
2021/03/08 13:32:29;;;;;;;;;;;22.40;99.90;;;;;;5050848;28;20022;-84
2021/03/08 13:34:57;;;;;;;;;;;22.40;99.90;;;;;;5050712;28;19921;-84
2021/03/08 13:37:24;;;;;;;;;;;22.30;99.90;;;;;;5050934;28;20780;-84
2021/03/08 13:39:50;;;;;;;;;;;22.40;99.90;;;;;;5049961;28;19925;-85
2021/03/08 13:42:17;;;;;;;;;;;22.30;99.90;;;;;;5032599;28;19913;-84
2021/03/08 13:44:44;;;;;;;;;;;22.40;99.90;;;;;;5032651;28;19987;-84
2021/03/08 13:47:11;;;;;;;;;;;22.40;99.90;;;;;;5050768;28;19920;-84
2021/03/08 13:49:37;;;;;;;;;;;22.50;99.90;;;;;;5050527;28;20007;-86
2021/03/08 13:52:04;;;;;;;;;;;22.50;99.90;;;;;;5032348;28;19912;-85
2021/03/08 13:54:31;;;;;;;;;;;22.50;99.90;;;;;;5050503;28;20000;-83
2021/03/08 13:56:57;;;;;;;;;;;22.50;99.90;;;;;;5050386;28;19920;-82
2021/03/08 13:59:24;;;;;;;;;;;22.50;99.90;;;;;;5032595;28;19921;-83
2021/03/08 14:01:51;;;;;;;;;;;22.50;99.90;;;;;;5049867;28;20252;-83
2021/03/08 14:04:18;;;;;;;;;;;22.50;99.90;;;;;;5050736;28;19925;-83
2021/03/08 14:06:45;;;;;;;;;;;22.60;99.90;;;;;;5050439;28;20433;-83
2021/03/08 14:09:12;;;;;;;;;;;22.60;99.90;;;;;;5050911;28;19921;-84
2021/03/08 14:11:38;;;;;;;;;;;22.60;99.90;;;;;;5049623;28;19952;-83
2021/03/08 14:14:05;;;;;;;;;;;22.50;99.90;;;;;;5053857;28;19908;-83
2021/03/08 14:16:32;;;;;;;;;;;22.60;99.90;;;;;;5052636;28;19954;-83
2021/03/08 14:18:58;;;;;;;;;;;22.50;99.90;;;;;;5052108;28;19913;-84
2021/03/08 14:21:25;;;;;;;;;;;22.50;99.90;;;;;;5058079;28;19916;-84
2021/03/08 14:23:52;;;;;;;;;;;22.60;99.90;;;;;;5068388;28;20335;-83
2021/03/08 14:26:18;;;;;;;;;;;22.50;99.90;;;;;;5053816;28;19928;-83
2021/03/08 14:28:45;;;;;;;;;;;22.60;99.90;;;;;;5052812;28;19924;-82
2021/03/08 14:31:12;;;;;;;;;;;22.70;99.90;;;;;;5052847;28;19909;-83